Terminal Aerodrome Forecast
Issued by NWS

Home | Current Version | Previous Version | Text Only | Print | Product List | Glossary On
Versions: 1 2 3 4 5 6 7 8 9 10 11 12
000
FTUS46 KPDT 301740
TAFRDM
TAF
KRDM 301740Z 3018/0118 30016G24KT P6SM SCT060 SCT150
     FM010300 33008KT P6SM SCT040
     FM011200 17004KT P6SM SCT100
     FM011400 17006KT P6SM SCT070 BKN100=

USA.gov is the U.S. government's official web portal to all federal, state and local government web resources and services.